Aviation Digital Data Service (ADDS)

Output produced by METARs form (1340 UTC 19 April 2018)
found at http://aviationweather.gov/adds/metars/
 
KCKB 191246Z 1913/2012 27013G27KT P6SM OVC030 
     TEMPO 1913/1916 -SHRA OVC015 
     FM191700 31011G19KT P6SM VCSH OVC025 
     FM192200 31012G20KT P6SM BKN040 
     FM200200 32007KT P6SM SCT060